Time;durP1;ratioP1;P1;durP2;ratioP2;P2;SDS_P1;SDS_P2;PMS_P1;PMS_P2;Temp;Humidity;BMP_temperature;BMP_pressure;BME280_temperature;BME280_humidity;BME280_pressure;Samples;Min_cycle;Max_cycle;Signal;HPM_P1;HPM_P2
2024/04/23 00:01:35;;;;;;;4.90;3.67;;;2.50;99.90;;;;;;6375861;22;20416;-65
2024/04/23 00:04:01;;;;;;;5.60;3.42;;;2.50;99.90;;;;;;6375548;22;20003;-64
2024/04/23 00:06:26;;;;;;;4.10;3.33;;;2.50;99.90;;;;;;6376007;22;20000;-64
2024/04/23 00:08:52;;;;;;;3.88;3.53;;;2.50;99.90;;;;;;6375773;22;20003;-65
2024/04/23 00:11:18;;;;;;;4.47;3.30;;;2.50;99.90;;;;;;6375902;22;19999;-64
2024/04/23 00:17:25;;;;;;;4.97;4.07;;;2.50;99.90;;;;;;6379368;22;19998;-64
2024/04/23 00:19:51;;;;;;;4.28;3.60;;;2.50;99.90;;;;;;6375373;22;20014;-64
2024/04/23 00:22:16;;;;;;;5.57;4.07;;;2.50;99.90;;;;;;6375630;22;20322;-64
2024/04/23 00:24:42;;;;;;;5.32;3.88;;;2.40;99.90;;;;;;6375595;22;20010;-64
2024/04/23 00:27:28;;;;;;;3.83;3.17;;;2.50;99.90;;;;;;6339955;22;20000;-64
2024/04/23 00:33:34;;;;;;;5.68;3.72;;;2.40;99.90;;;;;;6379033;22;20315;-64
2024/04/23 00:36:00;;;;;;;3.22;2.92;;;2.30;99.90;;;;;;6375633;22;20003;-64
2024/04/23 00:38:26;;;;;;;4.28;3.60;;;2.30;99.90;;;;;;6375829;22;20014;-64
2024/04/23 00:40:52;;;;;;;4.47;3.40;;;2.30;99.90;;;;;;6373159;22;20006;-64
2024/04/23 00:43:17;;;;;;;5.00;3.40;;;2.30;99.90;;;;;;6375930;22;20303;-64
2024/04/23 00:45:46;;;;;;;4.43;2.80;;;2.20;99.90;;;;;;6375063;22;20421;-64
2024/04/23 00:48:13;;;;;;;3.85;3.53;;;2.20;99.90;;;;;;6375310;22;20031;-64
2024/04/23 00:50:41;;;;;;;4.18;3.58;;;2.10;99.90;;;;;;6374885;22;20422;-64
2024/04/23 00:56:48;;;;;;;5.05;3.17;;;2.10;99.90;;;;;;6379145;22;20294;-64
2024/04/23 00:59:16;;;;;;;3.90;3.50;;;2.20;99.90;;;;;;6375163;22;20009;-64
2024/04/23 01:01:45;;;;;;;4.80;3.17;;;2.20;99.90;;;;;;6375519;22;20096;-64
2024/04/23 01:04:12;;;;;;;5.40;3.45;;;2.10;99.90;;;;;;6375114;22;20310;-64
2024/04/23 01:06:38;;;;;;;3.10;2.80;;;2.20;99.90;;;;;;6375573;22;20036;-64
2024/04/23 01:09:03;;;;;;;4.15;3.30;;;2.10;99.90;;;;;;6375428;22;20000;-64
2024/04/23 01:11:30;;;;;;;4.15;3.75;;;2.10;99.90;;;;;;6375618;22;20307;-64
2024/04/23 01:13:56;;;;;;;4.47;3.63;;;2.10;99.90;;;;;;6332338;22;19995;-64
2024/04/23 01:16:26;;;;;;;4.93;3.30;;;2.10;99.90;;;;;;6375324;22;20010;-64
2024/04/23 01:18:55;;;;;;;4.30;3.78;;;2.10;99.90;;;;;;6374897;22;20027;-64
2024/04/23 01:21:42;;;;;;;4.60;3.75;;;2.10;99.90;;;;;;6375737;22;20007;-64
2024/04/23 01:24:15;;;;;;;5.57;3.75;;;2.10;99.90;;;;;;6375403;22;20002;-64
2024/04/23 01:27:02;;;;;;;4.03;3.55;;;2.10;99.90;;;;;;6339698;22;20010;-64
2024/04/23 01:29:29;;;;;;;4.35;3.95;;;2.00;99.90;;;;;;6375088;22;20303;-65
2024/04/23 01:31:56;;;;;;;5.00;3.78;;;2.00;99.90;;;;;;6375098;22;20006;-64
2024/04/23 01:34:22;;;;;;;4.70;3.50;;;1.90;99.90;;;;;;6374490;22;19999;-64
2024/04/23 01:36:49;;;;;;;4.35;3.95;;;1.90;99.90;;;;;;6375455;22;20010;-64
2024/04/23 01:39:16;;;;;;;4.95;3.83;;;1.90;99.90;;;;;;6374935;22;20015;-64
2024/04/23 01:41:41;;;;;;;5.75;3.72;;;1.90;99.90;;;;;;6375583;22;20007;-64
2024/04/23 01:44:07;;;;;;;4.32;3.92;;;1.90;99.90;;;;;;6375093;22;20014;-64
2024/04/23 01:46:33;;;;;;;4.85;4.18;;;1.90;99.90;;;;;;6375583;22;20399;-64
2024/04/23 01:52:41;;;;;;;5.38;4.38;;;2.00;99.90;;;;;;6378873;22;20035;-64
2024/04/23 01:55:08;;;;;;;4.80;4.30;;;1.90;99.90;;;;;;6375500;22;20448;-64
2024/04/23 01:57:37;;;;;;;5.82;5.18;;;1.80;99.90;;;;;;6375370;22;20156;-64
2024/04/23 02:00:07;;;;;;;5.28;4.78;;;1.80;99.90;;;;;;6374971;22;20000;-64
2024/04/23 02:02:35;;;;;;;6.72;4.63;;;1.80;99.90;;;;;;6376528;22;19999;-64
2024/04/23 02:05:01;;;;;;;5.50;4.35;;;1.90;99.90;;;;;;6376817;22;20047;-64
2024/04/23 02:07:27;;;;;;;5.00;4.30;;;1.90;99.90;;;;;;6376932;22;20048;-64
2024/04/23 02:09:53;;;;;;;6.80;5.00;;;1.90;99.90;;;;;;6376752;22;20011;-65
2024/04/23 02:12:22;;;;;;;5.00;4.50;;;1.90;99.90;;;;;;6377213;22;20101;-64
2024/04/23 02:14:47;;;;;;;5.80;4.40;;;1.90;99.90;;;;;;6376791;22;20003;-64
2024/04/23 02:17:34;;;;;;;7.07;4.72;;;1.80;99.90;;;;;;6341701;22;20391;-64
2024/04/23 02:20:03;;;;;;;4.78;4.32;;;1.90;99.90;;;;;;6376871;22;19995;-64
2024/04/23 02:22:28;;;;;;;6.00;4.03;;;1.80;99.90;;;;;;6376506;22;20289;-64
2024/04/23 02:24:54;;;;;;;4.35;3.95;;;1.80;99.90;;;;;;6376746;22;19999;-64
2024/04/23 02:27:30;;;;;;;6.43;4.18;;;1.80;99.90;;;;;;6376973;22;20003;-64
2024/04/23 02:29:59;;;;;;;4.97;4.47;;;1.80;99.90;;;;;;6376627;22;20010;-64
2024/04/23 02:32:24;;;;;;;5.45;4.90;;;1.70;99.90;;;;;;6376940;22;20010;-64
2024/04/23 02:34:50;;;;;;;5.10;4.15;;;1.80;99.90;;;;;;6376980;22;19995;-64
2024/04/23 02:37:16;;;;;;;4.50;3.97;;;1.80;99.90;;;;;;6376930;22;20003;-64
2024/04/23 02:39:41;;;;;;;4.47;3.53;;;1.80;99.90;;;;;;6376615;22;20006;-64
2024/04/23 02:42:07;;;;;;;3.80;3.50;;;1.70;99.90;;;;;;6376814;22;19995;-64
2024/04/23 02:44:33;;;;;;;3.78;3.47;;;1.70;99.90;;;;;;6374950;22;19999;-64
2024/04/23 02:46:58;;;;;;;6.00;4.55;;;1.60;99.90;;;;;;6376448;22;19999;-64
2024/04/23 02:53:05;;;;;;;8.25;5.10;;;1.60;99.90;;;;;;6380324;22;20006;-64
2024/04/23 02:55:31;;;;;;;10.60;5.18;;;1.50;99.90;;;;;;6376716;22;20426;-64
2024/04/23 02:57:57;;;;;;;5.30;4.80;;;1.50;99.90;;;;;;6376619;22;19996;-64
2024/04/23 03:00:23;;;;;;;6.32;5.20;;;1.40;99.90;;;;;;6376187;22;20047;-64
2024/04/23 03:02:48;;;;;;;5.80;4.10;;;1.40;99.90;;;;;;6376608;22;20104;-64
2024/04/23 03:05:14;;;;;;;6.88;5.00;;;1.40;99.90;;;;;;6376107;22;19999;-64
2024/04/23 03:07:40;;;;;;;5.00;4.43;;;1.40;99.90;;;;;;6376363;22;19999;-64
2024/04/23 03:10:25;;;;;;;5.75;3.80;;;1.40;99.90;;;;;;6340379;22;20023;-64
2024/04/23 03:12:51;;;;;;;5.35;3.63;;;1.40;99.90;;;;;;6376496;22;20006;-64
2024/04/23 03:15:17;;;;;;;4.38;3.97;;;1.40;99.90;;;;;;6376339;22;20074;-64
2024/04/23 03:21:23;;;;;;;6.60;4.22;;;1.30;99.90;;;;;;6379876;22;20430;-64
2024/04/23 03:23:50;;;;;;;4.82;3.83;;;1.30;99.90;;;;;;6376804;22;20014;-64
2024/04/23 03:26:36;;;;;;;6.10;4.60;;;1.20;99.90;;;;;;6340724;22;20013;-64
2024/04/23 03:29:01;;;;;;;4.82;3.80;;;1.20;99.90;;;;;;6376233;22;19999;-64
2024/04/23 03:31:28;;;;;;;5.32;4.47;;;1.20;99.90;;;;;;6375986;22;20075;-64
2024/04/23 03:34:13;;;;;;;5.22;4.35;;;1.00;99.90;;;;;;6340266;22;20000;-64
2024/04/23 03:36:39;;;;;;;4.85;4.35;;;1.00;99.90;;;;;;6375952;22;20426;-64
2024/04/23 03:39:08;;;;;;;4.50;4.03;;;1.00;99.90;;;;;;6376051;22;20004;-64
2024/04/23 03:41:34;;;;;;;5.43;4.38;;;1.00;99.90;;;;;;6376103;22;20329;-64
2024/04/23 03:43:59;;;;;;;5.28;4.43;;;0.90;99.90;;;;;;6376020;22;20023;-64
2024/04/23 03:46:25;;;;;;;4.97;4.45;;;0.90;99.90;;;;;;6375938;22;20368;-64
2024/04/23 03:49:11;;;;;;;5.55;5.00;;;0.90;99.90;;;;;;6339468;22;20450;-64
2024/04/23 03:51:37;;;;;;;6.55;5.60;;;0.90;99.90;;;;;;6376174;22;20003;-64
2024/04/23 03:54:03;;;;;;;7.07;5.53;;;0.90;99.90;;;;;;6375529;22;19995;-64
2024/04/23 04:00:12;;;;;;;10.18;5.00;;;0.90;99.90;;;;;;6379456;22;19998;-64
2024/04/23 04:08:21;;;;;;;7.63;5.05;;;0.80;99.90;;;;;;6375964;22;20014;-64
2024/04/23 04:14:48;;;;;;;6.45;4.72;;;0.70;99.90;;;;;;6379673;22;20009;-64
2024/04/23 04:17:34;;;;;;;7.00;5.50;;;0.70;99.90;;;;;;6340246;22;20230;-64
2024/04/23 04:19:59;;;;;;;6.32;4.43;;;0.70;99.90;;;;;;6373722;22;20007;-64
2024/04/23 04:26:10;;;;;;;4.90;4.40;;;0.70;99.90;;;;;;6379418;22;20001;-64
2024/04/23 04:28:36;;;;;;;5.68;4.60;;;0.80;99.90;;;;;;6375635;22;20087;-64
2024/04/23 04:31:02;;;;;;;4.47;3.95;;;0.80;99.90;;;;;;6375095;22;20376;-64
2024/04/23 04:37:08;;;;;;;5.45;4.93;;;0.90;99.90;;;;;;6379333;22;19998;-64
2024/04/23 04:43:15;;;;;;;3.72;3.40;;;1.10;99.90;;;;;;6379380;22;20074;-64
2024/04/23 04:49:22;;;;;;;3.92;3.40;;;1.50;99.90;;;;;;6378961;22;20393;-64
2024/04/23 04:51:47;;;;;;;4.53;3.60;;;1.90;99.90;;;;;;6373348;22;20007;-64
2024/04/23 04:54:13;;;;;;;3.85;3.42;;;2.30;99.90;;;;;;6373270;22;20411;-64
2024/04/23 04:56:39;;;;;;;4.20;3.63;;;2.60;99.90;;;;;;6375143;22;20023;-64
2024/04/23 05:02:46;;;;;;;3.47;3.17;;;4.00;99.90;;;;;;6378624;22;20367;-64
2024/04/23 05:08:52;;;;;;;2.80;2.13;;;5.40;99.90;;;;;;6378832;22;20002;-64
2024/04/23 05:14:59;;;;;;;3.30;2.60;;;7.30;99.90;;;;;;6378841;22;20149;-64
2024/04/23 05:21:06;;;;;;;2.70;2.50;;;10.00;99.90;;;;;;6378769;22;20149;-64
2024/04/23 05:23:31;;;;;;;3.72;2.88;;;11.30;99.90;;;;;;6375127;22;20039;-64
2024/04/23 05:25:57;;;;;;;2.83;2.63;;;12.20;99.90;;;;;;6375557;22;19995;-64
2024/04/23 05:34:48;;;;;;;3.50;2.50;;;14.70;99.90;;;;;;6375255;22;19999;-64
2024/04/23 05:40:55;;;;;;;4.07;2.55;;;15.60;99.60;;;;;;6381083;22;20150;-65
2024/04/23 05:43:20;;;;;;;3.35;2.53;;;16.10;98.80;;;;;;6375211;22;20003;-65
2024/04/23 05:45:46;;;;;;;3.35;2.72;;;16.70;98.00;;;;;;6377374;22;20280;-65
2024/04/23 05:48:49;;;;;;;5.05;2.55;;;17.00;97.10;;;;;;6375365;22;20075;-65
2024/04/23 05:51:53;;;;;;;4.05;3.17;;;17.20;95.40;;;;;;6377575;22;19999;-65
2024/04/23 05:57:59;;;;;;;4.38;3.28;;;17.60;94.40;;;;;;6381209;22;20002;-65
2024/04/23 06:00:26;;;;;;;4.57;3.80;;;17.80;94.20;;;;;;6376317;22;20023;-64
2024/04/23 06:02:51;;;;;;;3.70;3.35;;;18.40;93.60;;;;;;6375860;22;20010;-65
2024/04/23 06:05:17;;;;;;;3.63;3.20;;;18.60;92.70;;;;;;6376158;22;20011;-65
2024/04/23 06:07:43;;;;;;;9.07;4.43;;;18.40;91.90;;;;;;6376170;22;20007;-65
2024/04/23 06:10:09;;;;;;;4.53;4.13;;;17.40;91.10;;;;;;6376264;22;19999;-65
2024/04/23 06:16:16;;;;;;;5.13;3.67;;;15.50;92.10;;;;;;6379063;22;20006;-65
2024/04/23 06:22:24;;;;;;;3.50;3.20;;;14.10;93.50;;;;;;6379600;22;20006;-65
2024/04/23 06:24:52;;;;;;;4.13;3.75;;;13.70;94.40;;;;;;6376114;22;20362;-65
2024/04/23 06:27:22;;;;;;;4.95;3.53;;;13.60;94.30;;;;;;6376218;22;20003;-65
2024/04/23 06:29:49;;;;;;;3.75;3.45;;;13.50;94.80;;;;;;6375596;22;20358;-65
2024/04/23 06:32:14;;;;;;;3.95;3.65;;;13.70;95.10;;;;;;6376961;22;20010;-65
2024/04/23 06:34:41;;;;;;;4.95;3.85;;;13.80;95.00;;;;;;6377010;22;20026;-65
2024/04/23 06:40:50;;;;;;;3.80;3.50;;;13.30;93.30;;;;;;6380313;22;20002;-65
2024/04/23 06:46:57;;;;;;;4.68;3.83;;;13.00;94.00;;;;;;6380179;22;20338;-64
2024/04/23 06:53:04;;;;;;;6.82;4.53;;;13.10;93.90;;;;;;6379457;22;20066;-65
2024/04/23 06:59:10;;;;;;;4.53;4.13;;;13.10;93.90;;;;;;6379586;22;20006;-65
2024/04/23 07:05:18;;;;;;;5.45;4.22;;;13.10;94.50;;;;;;6379775;22;19998;-65
2024/04/23 07:07:43;;;;;;;5.05;4.55;;;13.00;94.30;;;;;;6375892;22;19995;-65
2024/04/23 07:10:09;;;;;;;4.50;4.10;;;12.90;94.20;;;;;;6375816;22;20014;-65
2024/04/23 07:16:16;;;;;;;4.60;4.20;;;12.80;93.30;;;;;;6379265;22;20006;-65
2024/04/23 07:26:18;;;;;;;6.85;4.60;;;13.00;92.80;;;;;;6379817;22;20006;-65
2024/04/23 07:32:25;;;;;;;5.70;4.55;;;13.10;92.90;;;;;;6379593;22;19998;-65
2024/04/23 07:38:31;;;;;;;6.22;4.47;;;13.40;93.60;;;;;;6379272;22;20066;-65
2024/04/23 07:40:59;;;;;;;5.47;4.65;;;13.70;93.40;;;;;;6375456;22;20418;-65
2024/04/23 07:43:24;;;;;;;5.60;4.85;;;13.80;93.40;;;;;;6375188;22;20009;-65
2024/04/23 07:49:31;;;;;;;4.90;4.38;;;13.80;92.80;;;;;;6378753;22;20422;-65
2024/04/23 07:51:57;;;;;;;4.55;4.15;;;13.60;92.40;;;;;;6375742;22;19999;-65
2024/04/23 07:54:23;;;;;;;5.05;4.55;;;13.50;92.20;;;;;;6375214;22;20010;-65
2024/04/23 07:56:48;;;;;;;4.40;4.00;;;13.40;92.30;;;;;;6375556;22;20000;-65
2024/04/23 07:59:14;;;;;;;4.57;4.15;;;13.60;92.30;;;;;;6374513;22;20310;-65
2024/04/23 08:01:41;;;;;;;4.25;3.60;;;13.60;92.00;;;;;;6375116;22;20011;-65
2024/04/23 08:04:06;;;;;;;3.08;2.28;;;13.50;91.90;;;;;;6375477;22;20303;-65
2024/04/23 08:06:32;;;;;;;2.75;2.40;;;13.70;91.60;;;;;;6375227;22;20009;-65
2024/04/23 08:08:58;;;;;;;2.83;1.98;;;13.80;91.10;;;;;;6374978;22;20066;-65
2024/04/23 08:15:05;;;;;;;4.88;2.75;;;13.80;84.90;;;;;;6377667;22;20447;-65
2024/04/23 08:17:31;;;;;;;3.08;2.03;;;14.00;89.20;;;;;;6374391;22;19999;-65
2024/04/23 08:19:56;;;;;;;2.80;2.55;;;13.90;87.70;;;;;;6374766;22;20000;-65
2024/04/23 08:22:22;;;;;;;2.30;2.10;;;14.10;88.30;;;;;;6374747;22;20410;-66
2024/04/23 08:24:48;;;;;;;3.85;1.00;;;14.20;88.20;;;;;;6375014;22;20003;-65
2024/04/23 08:27:14;;;;;;;3.40;1.75;;;14.20;86.10;;;;;;6374765;22;20006;-65
2024/04/23 08:29:39;;;;;;;1.90;0.85;;;13.80;80.40;;;;;;6373683;22;19999;-65
2024/04/23 08:35:48;;;;;;;2.05;1.10;;;12.90;78.60;;;;;;6378287;22;20323;-65
2024/04/23 08:38:14;;;;;;;1.38;1.10;;;13.10;80.50;;;;;;6374558;22;20335;-65
2024/04/23 08:40:39;;;;;;;2.80;1.15;;;13.30;80.00;;;;;;6374301;22;20003;-66
2024/04/23 08:46:47;;;;;;;2.92;1.25;;;13.70;78.00;;;;;;6378222;22;20087;-66
2024/04/23 08:49:14;;;;;;;2.10;1.15;;;14.00;80.20;;;;;;6374114;22;19999;-65
2024/04/23 08:55:21;;;;;;;2.72;1.20;;;14.40;76.80;;;;;;6378366;22;20088;-65
2024/04/23 09:01:33;;;;;;;1.50;1.05;;;13.40;76.90;;;;;;6377302;22;20291;-65
2024/04/23 09:07:41;;;;;;;2.53;1.15;;;14.00;76.70;;;;;;6377973;22;20436;-65
2024/04/23 09:13:48;;;;;;;3.90;1.55;;;14.20;76.70;;;;;;6379056;22;20383;-65
2024/04/23 09:19:55;;;;;;;1.80;1.00;;;14.20;73.00;;;;;;6379110;22;20006;-65
2024/04/23 09:22:21;;;;;;;3.00;1.25;;;13.50;73.40;;;;;;6376450;22;19995;-65
2024/04/23 09:28:33;;;;;;;2.28;0.93;;;13.10;75.00;;;;;;6379048;22;20039;-65
2024/04/23 09:34:40;;;;;;;1.50;1.00;;;13.60;78.10;;;;;;6379005;22;20062;-65
2024/04/23 09:37:16;;;;;;;3.60;1.25;;;14.00;77.80;;;;;;6376655;22;20292;-65
2024/04/23 09:43:23;;;;;;;1.40;1.00;;;14.20;74.40;;;;;;6380777;22;20006;-65
2024/04/23 09:49:31;;;;;;;2.10;1.13;;;14.40;74.10;;;;;;6379800;22;20429;-65
2024/04/23 09:51:57;;;;;;;2.78;1.10;;;14.00;75.20;;;;;;6376738;22;19999;-66
2024/04/23 09:58:05;;;;;;;1.80;1.13;;;14.10;73.60;;;;;;6380283;22;20006;-65
2024/04/23 10:04:12;;;;;;;2.00;1.05;;;14.20;72.20;;;;;;6380466;22;20006;-66
2024/04/23 10:10:25;;;;;;;1.92;1.45;;;14.50;74.60;;;;;;6379687;22;20103;-65
2024/04/23 10:17:15;;;;;;;1.83;1.10;;;14.90;77.00;;;;;;6380354;22;20002;-65
2024/04/23 10:19:45;;;;;;;1.48;1.33;;;15.20;79.60;;;;;;6180005;23;20448;-65
2024/04/23 10:22:12;;;;;;;4.22;1.10;;;14.90;75.00;;;;;;6350685;22;19991;-65
2024/04/23 10:24:38;;;;;;;3.03;1.02;;;14.60;75.80;;;;;;6375473;22;20348;-65
2024/04/23 10:30:45;;;;;;;1.40;0.95;;;14.00;73.60;;;;;;6380458;22;20010;-65
2024/04/23 10:36:54;;;;;;;2.85;1.58;;;13.60;79.30;;;;;;6379600;22;20520;-65
2024/04/23 10:39:22;;;;;;;2.15;1.52;;;13.90;79.90;;;;;;6375760;22;20007;-66
2024/04/23 10:45:29;;;;;;;2.78;1.30;;;14.00;79.80;;;;;;6380123;22;20314;-65
2024/04/23 10:51:36;;;;;;;3.05;1.80;;;15.30;80.50;;;;;;6380124;22;20006;-65
2024/04/23 10:57:42;;;;;;;1.80;1.30;;;15.30;75.50;;;;;;6380024;22;20421;-65
2024/04/23 11:00:10;;;;;;;2.65;1.20;;;14.80;78.10;;;;;;6376058;22;19995;-65
2024/04/23 11:06:20;;;;;;;2.85;1.00;;;14.30;77.20;;;;;;6379310;22;20005;-65
2024/04/23 11:08:50;;;;;;;2.13;1.08;;;14.50;75.70;;;;;;6376325;22;20088;-65
2024/04/23 11:11:22;;;;;;;1.60;1.00;;;14.80;78.40;;;;;;6375777;22;20007;-65
2024/04/23 11:13:57;;;;;;;2.70;1.20;;;14.90;76.40;;;;;;6375994;22;20422;-65
2024/04/23 11:20:05;;;;;;;2.15;1.00;;;15.00;76.50;;;;;;6379355;22;20070;-65
2024/04/23 11:22:50;;;;;;;1.30;0.90;;;14.80;71.80;;;;;;6376004;22;20003;-65
2024/04/23 11:25:27;;;;;;;3.20;1.13;;;14.90;73.40;;;;;;6376156;22;20007;-65
2024/04/23 11:27:54;;;;;;;2.35;1.30;;;14.60;72.30;;;;;;6375371;22;20011;-65
2024/04/23 11:30:20;;;;;;;4.35;1.08;;;14.40;74.70;;;;;;6374860;22;20035;-65
2024/04/23 11:32:46;;;;;;;3.13;1.10;;;14.20;77.50;;;;;;6375544;22;20036;-65
2024/04/23 11:35:13;;;;;;;2.25;1.15;;;13.90;76.50;;;;;;6375289;22;20007;-65
2024/04/23 11:37:39;;;;;;;2.40;1.25;;;13.80;76.60;;;;;;6375443;22;20023;-65
2024/04/23 11:43:46;;;;;;;3.40;1.00;;;14.00;75.30;;;;;;6379177;22;20065;-65
2024/04/23 11:46:15;;;;;;;2.03;0.90;;;14.00;73.30;;;;;;6375461;22;20007;-65
2024/04/23 11:48:42;;;;;;;1.75;0.82;;;14.10;73.20;;;;;;6375519;22;19999;-65
2024/04/23 11:54:50;;;;;;;1.33;1.00;;;14.40;75.70;;;;;;6379415;22;20067;-65
2024/04/23 11:57:18;;;;;;;3.22;1.38;;;14.60;75.70;;;;;;6375428;22;20010;-65
2024/04/23 12:03:26;;;;;;;2.72;1.20;;;14.80;73.80;;;;;;6379378;22;20006;-65
2024/04/23 12:05:52;;;;;;;1.85;1.08;;;14.70;74.80;;;;;;6375740;22;20463;-66
2024/04/23 12:12:01;;;;;;;1.92;1.13;;;14.50;71.90;;;;;;6379219;22;20070;-65
2024/04/23 12:14:30;;;;;;;1.40;0.80;;;14.30;71.20;;;;;;6375704;22;20080;-65
2024/04/23 12:20:37;;;;;;;9.55;1.13;;;14.60;76.70;;;;;;6378602;22;20002;-65
2024/04/23 12:26:58;;;;;;;2.20;1.30;;;14.80;71.90;;;;;;6378680;22;20314;-65
2024/04/23 12:33:09;;;;;;;2.85;1.20;;;14.90;77.90;;;;;;6378746;22;20070;-65
2024/04/23 12:35:35;;;;;;;2.90;1.92;;;14.90;75.60;;;;;;6375505;22;20010;-65
2024/04/23 12:38:01;;;;;;;1.35;0.90;;;15.00;76.90;;;;;;6374909;22;19998;-65
2024/04/23 12:40:27;;;;;;;1.38;0.82;;;15.10;76.40;;;;;;6374879;22;20010;-65
2024/04/23 12:42:55;;;;;;;4.00;1.58;;;15.00;74.40;;;;;;6374900;22;20007;-65
2024/04/23 12:45:20;;;;;;;1.83;0.75;;;14.90;74.50;;;;;;6375098;22;20051;-65
2024/04/23 12:47:46;;;;;;;1.75;0.80;;;14.80;76.30;;;;;;6375237;22;20407;-66
2024/04/23 12:53:53;;;;;;;8.80;1.83;;;14.90;73.10;;;;;;6378664;22;20062;-66
2024/04/23 12:56:18;;;;;;;1.42;0.93;;;14.90;74.70;;;;;;6375498;22;20011;-65
2024/04/23 12:58:44;;;;;;;1.15;0.70;;;15.10;74.10;;;;;;6374741;22;19999;-65
2024/04/23 13:01:10;;;;;;;1.70;0.90;;;15.20;73.90;;;;;;6374737;22;20036;-65
2024/04/23 13:03:35;;;;;;;1.20;0.75;;;15.10;73.60;;;;;;6374364;22;20422;-65
2024/04/23 13:09:42;;;;;;;2.22;0.80;;;15.20;74.50;;;;;;6378300;22;20070;-65
2024/04/23 13:15:49;;;;;;;1.77;1.05;;;15.40;76.20;;;;;;6378606;22;20303;-65
2024/04/23 13:18:15;;;;;;;0.98;0.82;;;15.40;73.70;;;;;;6374124;22;20024;-65
2024/04/23 13:20:41;;;;;;;1.50;0.82;;;15.10;71.90;;;;;;6375101;22;20002;-66
2024/04/23 13:27:02;;;;;;;3.05;0.85;;;14.90;73.70;;;;;;6378155;22;20124;-65
2024/04/23 13:29:30;;;;;;;2.03;1.20;;;14.60;74.50;;;;;;6373942;22;20028;-65
2024/04/23 13:31:56;;;;;;;1.15;0.60;;;14.40;74.70;;;;;;6373429;22;20003;-65
2024/04/23 13:34:22;;;;;;;2.30;0.80;;;14.30;77.30;;;;;;6374297;22;19999;-65
2024/04/23 13:40:29;;;;;;;1.52;1.00;;;14.10;77.70;;;;;;6378319;22;20043;-65
2024/04/23 13:42:55;;;;;;;1.50;0.73;;;14.00;79.20;;;;;;6373854;22;20063;-65
2024/04/23 13:49:02;;;;;;;2.53;0.70;;;13.80;78.90;;;;;;6377748;22;20137;-65
2024/04/23 13:51:27;;;;;;;2.47;0.55;;;13.40;78.50;;;;;;6374766;22;20039;-65
2024/04/23 13:53:53;;;;;;;1.50;0.40;;;13.30;78.50;;;;;;6374337;22;20067;-65
2024/04/23 13:56:19;;;;;;;1.08;0.30;;;13.20;76.80;;;;;;6374772;22;20006;-66
2024/04/23 13:58:44;;;;;;;4.13;0.93;;;12.90;76.10;;;;;;6375708;22;20066;-66
2024/04/23 14:01:10;;;;;;;0.57;0.30;;;12.80;76.60;;;;;;6376537;22;19997;-66
2024/04/23 14:03:36;;;;;;;1.08;0.30;;;12.80;76.20;;;;;;6376173;22;20488;-66
2024/04/23 14:09:43;;;;;;;4.97;0.68;;;12.40;75.80;;;;;;6379498;22;20066;-65
2024/04/23 14:15:50;;;;;;;0.68;0.40;;;12.20;75.20;;;;;;6379821;22;20006;-65
2024/04/23 14:18:17;;;;;;;2.47;0.30;;;12.50;76.90;;;;;;6375630;22;20431;-66
2024/04/23 14:20:43;;;;;;;1.15;0.50;;;12.30;77.50;;;;;;6376717;22;19992;-66
2024/04/23 14:23:11;;;;;;;1.08;0.35;;;12.40;78.10;;;;;;6376012;22;19996;-66
2024/04/23 14:25:37;;;;;;;0.60;0.43;;;12.20;77.30;;;;;;6376610;22;20307;-66
2024/04/23 14:31:45;;;;;;;9.18;1.17;;;12.20;79.80;;;;;;6378727;22;20453;-66
2024/04/23 14:34:12;;;;;;;1.00;0.50;;;12.20;81.00;;;;;;6376637;22;20006;-66
2024/04/23 14:36:39;;;;;;;2.83;0.47;;;12.30;82.40;;;;;;6376620;22;19995;-66
2024/04/23 14:39:05;;;;;;;0.95;0.35;;;12.30;81.70;;;;;;6376664;22;19991;-66
2024/04/23 14:41:32;;;;;;;4.13;0.75;;;12.10;80.70;;;;;;6376820;22;20005;-66
2024/04/23 14:43:58;;;;;;;2.58;0.57;;;12.20;82.20;;;;;;6376503;22;20011;-66
2024/04/23 14:50:10;;;;;;;1.70;0.93;;;11.90;80.60;;;;;;6379513;22;20006;-65
2024/04/23 14:52:36;;;;;;;4.75;0.95;;;11.60;84.00;;;;;;6376430;22;20406;-66
2024/04/23 14:58:44;;;;;;;1.98;1.42;;;11.20;89.60;;;;;;6379376;22;20067;-65
2024/04/23 15:04:50;;;;;;;1.98;0.90;;;10.90;90.20;;;;;;6378746;22;20006;-65
2024/04/23 15:07:16;;;;;;;7.03;0.98;;;10.80;90.70;;;;;;6375231;22;19999;-65
2024/04/23 15:09:42;;;;;;;2.47;1.38;;;10.60;91.20;;;;;;6374344;22;20005;-65
2024/04/23 15:12:08;;;;;;;5.55;1.95;;;10.40;91.70;;;;;;6375031;22;20011;-65
2024/04/23 15:14:33;;;;;;;1.73;1.08;;;10.30;92.00;;;;;;6375555;22;20003;-65
2024/04/23 15:20:40;;;;;;;3.55;1.30;;;10.20;93.10;;;;;;6380051;22;20074;-65
2024/04/23 15:23:06;;;;;;;7.85;1.98;;;10.10;93.80;;;;;;6376334;22;20007;-65
2024/04/23 15:25:32;;;;;;;4.57;2.05;;;10.00;94.00;;;;;;6376188;22;20434;-65
2024/04/23 15:27:58;;;;;;;9.40;2.53;;;10.00;94.70;;;;;;6333156;22;19999;-65
2024/04/23 15:34:06;;;;;;;1.95;1.83;;;9.70;95.70;;;;;;6379225;22;20070;-65
2024/04/23 15:40:13;;;;;;;1.38;1.27;;;9.60;96.50;;;;;;6379760;22;20006;-65
2024/04/23 15:46:19;;;;;;;4.82;2.03;;;9.30;97.50;;;;;;6379410;22;20048;-65
2024/04/23 15:48:46;;;;;;;3.53;1.77;;;9.20;98.70;;;;;;6375335;22;20313;-65
2024/04/23 15:51:13;;;;;;;5.45;1.83;;;9.10;99.90;;;;;;6375072;22;19995;-65
2024/04/23 15:53:38;;;;;;;5.13;2.65;;;9.00;99.90;;;;;;6375598;22;20335;-65
2024/04/23 15:59:58;;;;;;;2.20;1.90;;;8.90;99.90;;;;;;6378853;22;20422;-65
2024/04/23 16:02:27;;;;;;;2.55;1.58;;;8.90;99.90;;;;;;6376017;22;19999;-65
2024/04/23 16:04:52;;;;;;;1.77;1.35;;;8.80;99.90;;;;;;6375873;22;19995;-65
2024/04/23 16:11:01;;;;;;;2.50;1.70;;;8.90;99.90;;;;;;6378888;22;20023;-65
2024/04/23 16:13:28;;;;;;;2.88;1.30;;;8.70;99.90;;;;;;6375458;22;20315;-66
2024/04/23 16:15:58;;;;;;;1.60;1.30;;;8.60;99.90;;;;;;6375619;22;20014;-67
2024/04/23 16:18:28;;;;;;;2.72;1.40;;;8.50;99.90;;;;;;6375257;22;20003;-66
2024/04/23 16:20:54;;;;;;;8.43;1.70;;;8.70;99.90;;;;;;6375207;22;20007;-66
2024/04/23 16:27:14;;;;;;;3.30;1.65;;;8.30;99.90;;;;;;6376613;22;20006;-66
2024/04/23 16:33:21;;;;;;;3.00;1.70;;;8.10;99.90;;;;;;6378875;22;20425;-66
2024/04/23 16:39:28;;;;;;;2.53;1.60;;;8.10;99.90;;;;;;6378771;22;20322;-67
2024/04/23 16:41:54;;;;;;;4.00;2.20;;;7.90;99.90;;;;;;6375286;22;20077;-66
2024/04/23 16:48:00;;;;;;;3.88;2.50;;;7.80;99.90;;;;;;6378803;22;20459;-66
2024/04/23 16:50:27;;;;;;;3.20;2.25;;;7.70;99.90;;;;;;6374796;22;19996;-66
2024/04/23 16:56:34;;;;;;;6.63;2.67;;;7.60;99.90;;;;;;6378698;22;20006;-66
2024/04/23 16:58:59;;;;;;;5.43;2.88;;;7.60;99.90;;;;;;6375090;22;20003;-66
2024/04/23 17:01:25;;;;;;;4.30;2.65;;;7.50;99.90;;;;;;6374959;22;20010;-66
2024/04/23 17:07:31;;;;;;;5.43;2.90;;;7.50;99.90;;;;;;6378611;22;20039;-66
2024/04/23 17:13:38;;;;;;;6.38;3.65;;;7.50;99.90;;;;;;6378805;22;20298;-66
2024/04/23 17:19:45;;;;;;;3.88;2.70;;;7.00;99.90;;;;;;6378361;22;20002;-66
2024/04/23 17:22:10;;;;;;;4.28;2.70;;;7.30;99.90;;;;;;6374933;22;19999;-66
2024/04/23 17:24:36;;;;;;;7.22;3.45;;;7.30;99.90;;;;;;6375271;22;19999;-66
2024/04/23 17:27:02;;;;;;;5.30;3.00;;;7.30;99.90;;;;;;6375214;22;20006;-66
2024/04/23 17:33:09;;;;;;;6.32;3.80;;;7.40;99.90;;;;;;6378332;22;20437;-66
2024/04/23 17:35:34;;;;;;;4.00;3.35;;;7.30;99.90;;;;;;6373965;22;20015;-66
2024/04/23 17:38:00;;;;;;;5.18;3.40;;;7.40;99.90;;;;;;6371240;22;20040;-66
2024/04/23 17:40:26;;;;;;;3.65;3.28;;;7.30;99.90;;;;;;6372894;22;20000;-66
2024/04/23 17:42:51;;;;;;;4.47;3.95;;;7.30;99.90;;;;;;6372795;22;20059;-66
2024/04/23 17:45:17;;;;;;;5.88;3.92;;;7.30;99.90;;;;;;6375603;22;20003;-66
2024/04/23 17:47:43;;;;;;;3.97;3.55;;;7.30;99.90;;;;;;6373294;22;20003;-66
2024/04/23 17:50:10;;;;;;;6.22;4.15;;;7.40;99.90;;;;;;6372909;22;20014;-66
2024/04/23 17:52:36;;;;;;;4.15;3.75;;;7.30;99.90;;;;;;6373252;22;20363;-66
2024/04/23 17:55:02;;;;;;;5.95;3.40;;;7.30;99.90;;;;;;6374025;22;20341;-66
2024/04/23 17:57:28;;;;;;;4.72;4.22;;;7.30;99.90;;;;;;6373795;22;20600;-66
2024/04/23 17:59:53;;;;;;;8.60;4.75;;;7.30;99.90;;;;;;6372063;22;20330;-66
2024/04/23 18:02:19;;;;;;;9.27;4.75;;;7.40;99.90;;;;;;6374353;22;20450;-66
2024/04/23 18:04:45;;;;;;;7.20;4.40;;;7.40;99.90;;;;;;6372218;22;20035;-66
2024/04/23 18:07:11;;;;;;;6.07;4.15;;;7.40;99.90;;;;;;6372883;22;20007;-66
2024/04/23 18:09:36;;;;;;;5.53;3.70;;;7.40;99.90;;;;;;6370380;22;20010;-66
2024/04/23 18:12:02;;;;;;;5.97;2.30;;;7.40;99.90;;;;;;6373308;22;20055;-66
2024/04/23 18:14:28;;;;;;;8.23;1.38;;;7.30;99.90;;;;;;6372790;22;20011;-66
2024/04/23 18:16:54;;;;;;;5.70;1.90;;;7.40;99.90;;;;;;6373743;22;19999;-66
2024/04/23 18:19:20;;;;;;;7.57;1.80;;;7.30;99.90;;;;;;6371744;22;20319;-66
2024/04/23 18:21:46;;;;;;;9.52;1.23;;;7.30;99.90;;;;;;6373192;22;20350;-66
2024/04/23 18:24:12;;;;;;;6.95;1.80;;;7.30;99.90;;;;;;6372325;22;20630;-66
2024/04/23 18:26:37;;;;;;;5.57;0.98;;;7.30;99.90;;;;;;6373151;22;20015;-66
2024/04/23 18:29:03;;;;;;;8.73;1.20;;;7.30;99.90;;;;;;6372769;22;20003;-66
2024/04/23 18:31:29;;;;;;;10.63;1.48;;;7.30;99.90;;;;;;6373644;22;20374;-66